createdAt,value
2019-02-18T00:03:12.079Z,30.50
2019-02-18T00:05:52.606Z,33.10
2019-02-18T00:08:33.533Z,34.03
2019-02-18T00:11:12.886Z,30.67
2019-02-18T00:14:00.943Z,31.90
2019-02-18T00:16:49.004Z,27.83
2019-02-18T00:19:37.093Z,32.00
2019-02-18T00:22:25.213Z,33.10
2019-02-18T00:25:13.268Z,33.97
2019-02-18T00:28:01.385Z,38.20
2019-02-18T00:30:49.526Z,36.57
2019-02-18T00:33:37.654Z,36.37
2019-02-18T00:36:25.799Z,31.90
2019-02-18T00:39:13.929Z,35.50
2019-02-18T00:42:02.006Z,29.37
2019-02-18T00:44:50.073Z,31.93
2019-02-18T00:47:38.190Z,31.87
2019-02-18T00:50:18.700Z,30.87
2019-02-18T00:52:59.090Z,31.03
2019-02-18T00:55:39.930Z,32.67
2019-02-18T00:58:20.746Z,36.90
2019-02-18T01:01:01.573Z,37.57
2019-02-18T01:03:42.433Z,32.00
2019-02-18T01:06:23.174Z,30.37
2019-02-18T01:08:52.270Z,31.90
2019-02-18T01:11:40.774Z,31.33
2019-02-18T01:14:28.907Z,33.07
2019-02-18T01:17:17.050Z,36.93
2019-02-18T01:20:05.741Z,27.30
2019-02-18T01:22:53.809Z,30.43
2019-02-18T01:25:42.098Z,36.00
2019-02-18T01:28:30.246Z,30.20
2019-02-18T01:31:18.374Z,31.57
2019-02-18T01:34:06.437Z,35.43
2019-02-18T01:36:54.570Z,35.83
2019-02-18T01:39:42.709Z,36.93
2019-02-18T01:42:30.891Z,35.53
2019-02-18T01:45:19.274Z,34.73
2019-02-18T01:48:07.890Z,36.87
2019-02-18T01:50:48.967Z,34.07
2019-02-18T01:53:29.672Z,32.07
2019-02-18T01:56:10.397Z,41.83
2019-02-18T01:58:51.017Z,41.30
2019-02-18T02:01:31.901Z,36.87
2019-02-18T02:04:12.542Z,41.10
2019-02-18T02:06:53.166Z,40.53
2019-02-18T02:09:33.942Z,37.40
2019-02-18T02:12:14.626Z,36.00
2019-02-18T02:14:55.330Z,32.40
2019-02-18T02:17:36.314Z,35.97
2019-02-18T02:20:16.834Z,38.00
2019-02-18T02:22:57.523Z,34.47
2019-02-18T02:25:38.282Z,41.43
2019-02-18T02:28:19.234Z,37.70
2019-02-18T02:31:01.244Z,42.77
2019-02-18T02:33:41.895Z,39.63
2019-02-18T02:36:22.497Z,43.20
2019-02-18T02:39:03.254Z,38.27
2019-02-18T02:41:43.910Z,30.17
2019-02-18T02:44:24.439Z,40.03
2019-02-18T02:47:05.183Z,32.03
2019-02-18T02:49:46.435Z,35.97
2019-02-18T02:52:27.127Z,39.03
2019-02-18T02:55:07.905Z,37.47
2019-02-18T02:57:48.790Z,34.50
2019-02-18T03:00:29.346Z,34.57
2019-02-18T03:03:09.954Z,36.37
2019-02-18T03:05:50.743Z,39.03
2019-02-18T03:08:31.440Z,37.17
2019-02-18T03:11:12.060Z,42.03
2019-02-18T03:13:52.614Z,32.97
2019-02-18T03:16:33.466Z,33.67
2019-02-18T03:19:12.538Z,36.63
2019-02-18T03:22:00.686Z,37.23
2019-02-18T03:25:07.951Z,36.97
2019-02-18T03:28:00.839Z,33.43
2019-02-18T03:30:48.461Z,29.23
2019-02-18T03:33:38.099Z,33.57
2019-02-18T03:36:26.180Z,37.30
2019-02-18T03:39:14.266Z,37.60
2019-02-18T03:42:02.390Z,34.97
2019-02-18T03:44:50.468Z,35.73
2019-02-18T03:47:38.525Z,39.70
2019-02-18T03:50:26.593Z,40.67
2019-02-18T03:53:14.822Z,35.33
2019-02-18T03:56:02.962Z,38.50
2019-02-18T03:58:51.111Z,39.27
2019-02-18T04:01:39.262Z,39.10
2019-02-18T04:04:27.602Z,42.17
2019-02-18T04:07:15.665Z,31.53
2019-02-18T04:10:03.937Z,39.13
2019-02-18T04:12:52.061Z,39.33
2019-02-18T04:15:40.443Z,37.87
2019-02-18T04:18:28.845Z,42.87
2019-02-18T04:21:17.051Z,33.13
2019-02-18T04:24:05.186Z,41.67
2019-02-18T04:26:53.350Z,36.57
2019-02-18T04:29:41.502Z,36.57
2019-02-18T04:32:29.626Z,33.83
2019-02-18T04:35:17.704Z,38.90
2019-02-18T04:38:05.845Z,35.33
2019-02-18T04:40:53.914Z,32.30
2019-02-18T04:43:42.305Z,31.20
2019-02-18T04:46:31.943Z,28.67
2019-02-18T04:49:20.091Z,30.27
2019-02-18T04:52:00.580Z,30.00
2019-02-18T04:54:41.199Z,31.07
2019-02-18T04:57:21.738Z,35.77
2019-02-18T05:00:02.748Z,41.63
2019-02-18T05:02:43.499Z,30.53
2019-02-18T05:05:24.217Z,39.03
2019-02-18T05:08:05.059Z,36.43
2019-02-18T05:10:45.793Z,35.10
2019-02-18T05:13:26.419Z,39.90
2019-02-18T05:16:07.022Z,38.47
2019-02-18T05:18:47.650Z,38.10
2019-02-18T05:21:28.541Z,40.97
2019-02-18T05:24:09.226Z,41.37
2019-02-18T05:26:49.653Z,36.67
2019-02-18T05:29:30.183Z,42.00
2019-02-18T05:32:11.186Z,41.30
2019-02-18T05:34:51.663Z,39.83
2019-02-18T05:37:32.767Z,44.17
2019-02-18T05:40:13.253Z,36.70
2019-02-18T05:42:54.186Z,35.83
2019-02-18T05:45:34.715Z,45.93
2019-02-18T05:48:15.265Z,44.00
2019-02-18T05:50:56.223Z,43.53
2019-02-18T05:53:35.363Z,42.00
2019-02-18T05:56:23.507Z,43.07
2019-02-18T05:59:11.636Z,39.63
2019-02-18T06:01:59.783Z,43.30
2019-02-18T06:04:28.658Z,47.53
2019-02-18T06:10:48.754Z,41.73
2019-02-18T06:13:36.947Z,41.83
2019-02-18T06:16:25.077Z,39.50
2019-02-18T06:19:13.144Z,47.87
2019-02-18T06:22:01.323Z,41.33
2019-02-18T06:24:49.558Z,44.87
2019-02-18T06:27:37.641Z,33.83
2019-02-18T06:30:25.786Z,39.40
2019-02-18T06:33:13.931Z,41.30
2019-02-18T06:36:01.999Z,46.03
2019-02-18T06:38:50.243Z,43.40
2019-02-18T06:41:38.392Z,39.10
2019-02-18T06:44:45.758Z,45.83
2019-02-18T06:47:33.834Z,40.30
2019-02-18T06:50:21.922Z,35.23
2019-02-18T06:53:03.221Z,36.80
2019-02-18T06:55:43.723Z,37.87
2019-02-18T06:58:44.128Z,40.07
2019-02-18T07:01:26.273Z,39.37
2019-02-18T07:04:26.110Z,39.40
2019-02-18T07:07:26.545Z,40.60
2019-02-18T07:10:15.688Z,37.30
2019-02-18T07:12:56.914Z,43.90
2019-02-18T07:15:38.124Z,43.87
2019-02-18T07:18:19.216Z,38.40
2019-02-18T07:20:59.949Z,37.07
2019-02-18T07:23:41.200Z,47.13
2019-02-18T07:26:22.126Z,46.10
2019-02-18T07:29:02.839Z,43.33
2019-02-18T07:31:43.815Z,41.10
2019-02-18T07:34:24.945Z,45.87
2019-02-18T07:37:05.517Z,45.23
2019-02-18T07:39:46.273Z,39.40
2019-02-18T07:42:26.821Z,46.17
2019-02-18T07:45:07.498Z,40.23
2019-02-18T07:47:48.054Z,44.00
2019-02-18T07:50:28.563Z,44.93
2019-02-18T07:53:09.212Z,50.07
2019-02-18T07:55:49.742Z,52.20
2019-02-18T07:58:30.731Z,48.33
2019-02-18T08:01:11.350Z,44.00
2019-02-18T08:03:52.166Z,47.37
2019-02-18T08:06:32.678Z,43.90
2019-02-18T08:09:13.285Z,44.73
2019-02-18T08:11:54.118Z,40.03
2019-02-18T08:14:35.065Z,47.67
2019-02-18T08:17:15.698Z,46.23
2019-02-18T08:19:56.143Z,40.27
2019-02-18T08:22:36.817Z,41.77
2019-02-18T08:25:17.410Z,48.47
2019-02-18T08:27:58.010Z,39.20
2019-02-18T08:30:38.735Z,41.90
2019-02-18T08:33:19.609Z,40.57
2019-02-18T08:36:00.277Z,37.03
2019-02-18T08:38:41.003Z,35.17
2019-02-18T08:41:22.058Z,35.93
2019-02-18T08:44:02.934Z,32.40
2019-02-18T08:46:43.498Z,35.40
2019-02-18T08:49:24.307Z,30.87
2019-02-18T08:52:05.570Z,26.63
2019-02-18T08:54:56.057Z,26.27
2019-02-18T08:57:28.631Z,25.10
2019-02-18T09:00:09.545Z,23.00
2019-02-18T09:02:50.268Z,22.20
2019-02-18T09:05:31.067Z,18.50
2019-02-18T09:08:11.465Z,17.82
2019-02-18T09:10:52.133Z,17.95
2019-02-18T09:13:32.940Z,16.67
2019-02-18T09:16:13.628Z,14.28
2019-02-18T09:18:54.362Z,19.40
2019-02-18T09:21:35.732Z,14.28
2019-02-18T09:24:20.990Z,10.45
2019-02-18T09:27:01.983Z,10.08
2019-02-18T09:29:43.062Z,10.00
2019-02-18T09:32:24.327Z,11.28
2019-02-18T09:35:05.229Z,9.15
2019-02-18T09:37:45.882Z,8.90
2019-02-18T09:40:26.670Z,11.53
2019-02-18T09:43:07.384Z,14.83
2019-02-18T09:45:48.595Z,8.70
2019-02-18T09:48:29.683Z,8.68
2019-02-18T09:51:12.832Z,8.33
2019-02-18T09:53:53.897Z,5.40
2019-02-18T09:56:36.900Z,6.70
2019-02-18T09:59:17.437Z,5.20
2019-02-18T10:01:58.072Z,5.42
2019-02-18T10:04:39.387Z,5.22
2019-02-18T10:07:20.043Z,6.15
2019-02-18T10:10:00.802Z,4.70
2019-02-18T10:15:27.905Z,6.08
2019-02-18T10:18:08.565Z,6.20
2019-02-18T10:20:49.099Z,6.20
2019-02-18T10:23:29.768Z,6.25
2019-02-18T10:29:16.945Z,7.17
2019-02-18T10:31:57.978Z,6.22
2019-02-18T10:34:38.911Z,5.90
2019-02-18T10:37:19.523Z,6.12
2019-02-18T10:40:00.057Z,8.45
2019-02-18T10:42:40.962Z,5.25
2019-02-18T10:48:08.975Z,5.80
2019-02-18T10:50:50.053Z,6.53
2019-02-18T10:53:30.616Z,8.35
2019-02-18T10:56:11.701Z,7.03
2019-02-18T10:58:52.721Z,8.85
2019-02-18T11:01:33.694Z,7.12
2019-02-18T11:04:14.082Z,7.95
2019-02-18T11:06:55.291Z,6.97
2019-02-18T11:09:36.203Z,6.83
2019-02-18T11:12:15.427Z,6.65
2019-02-18T11:15:03.771Z,6.53
2019-02-18T11:17:51.924Z,6.85
2019-02-18T11:20:40.123Z,6.55
2019-02-18T11:23:28.267Z,6.55
2019-02-18T11:26:16.461Z,7.58
2019-02-18T11:29:04.604Z,8.00
2019-02-18T11:31:52.766Z,7.30
2019-02-18T11:34:41.040Z,9.08
2019-02-18T11:37:30.906Z,6.92
2019-02-18T11:40:19.053Z,7.08
2019-02-18T11:43:07.210Z,7.92
2019-02-18T11:45:55.407Z,8.00
2019-02-18T11:48:43.554Z,9.25
2019-02-18T11:51:24.097Z,7.97
2019-02-18T11:54:05.044Z,8.25
2019-02-18T11:56:45.811Z,8.95
2019-02-18T11:59:26.535Z,8.80
2019-02-18T12:02:07.307Z,9.00
2019-02-18T12:04:48.067Z,9.13
2019-02-18T12:07:28.843Z,10.72
2019-02-18T12:10:10.057Z,9.45
2019-02-18T12:12:51.620Z,8.23
2019-02-18T12:15:32.514Z,8.98
2019-02-18T12:18:13.920Z,9.15
2019-02-18T12:20:55.230Z,8.00
2019-02-18T12:23:35.652Z,9.48
2019-02-18T12:26:16.136Z,10.65
2019-02-18T12:28:56.764Z,9.50
2019-02-18T12:31:38.108Z,8.63
2019-02-18T12:34:19.031Z,9.95
2019-02-18T12:37:00.122Z,8.13
2019-02-18T12:39:40.684Z,7.78
2019-02-18T12:42:21.466Z,6.45
2019-02-18T12:45:03.064Z,9.75
2019-02-18T12:47:44.491Z,7.15
2019-02-18T12:50:25.571Z,8.33
2019-02-18T12:53:07.177Z,11.68
2019-02-18T12:55:47.958Z,9.68
2019-02-18T12:58:28.603Z,7.50
2019-02-18T13:01:09.284Z,8.23
2019-02-18T13:03:50.116Z,10.75
2019-02-18T13:06:30.760Z,8.30
2019-02-18T13:09:14.545Z,8.93
2019-02-18T13:11:59.000Z,9.33
2019-02-18T13:14:37.663Z,8.95
2019-02-18T13:17:18.277Z,7.55
2019-02-18T13:19:58.986Z,6.20
2019-02-18T13:22:39.803Z,8.75
2019-02-18T13:25:20.209Z,9.00
2019-02-18T13:28:08.306Z,10.03
2019-02-18T13:30:43.521Z,7.95
2019-02-18T13:33:24.344Z,8.93
2019-02-18T13:36:05.022Z,6.92
2019-02-18T13:38:45.729Z,6.97
2019-02-18T13:41:26.457Z,6.83
2019-02-18T13:44:07.261Z,8.23
2019-02-18T13:49:30.557Z,6.17
2019-02-18T13:52:11.958Z,6.50
2019-02-18T13:54:52.967Z,6.70
2019-02-18T13:57:33.718Z,7.35
2019-02-18T14:00:18.411Z,6.17
2019-02-18T14:02:58.822Z,9.90
2019-02-18T14:08:25.679Z,7.85
2019-02-18T14:11:06.086Z,7.25
2019-02-18T14:13:46.869Z,8.65
2019-02-18T14:19:16.551Z,8.95
2019-02-18T14:21:57.763Z,8.65
2019-02-18T14:24:38.479Z,7.83
2019-02-18T14:27:19.731Z,7.28
2019-02-18T14:30:00.822Z,7.95
2019-02-18T14:32:41.222Z,9.85
2019-02-18T14:35:22.149Z,14.60
2019-02-18T14:38:03.830Z,9.25
2019-02-18T14:40:44.393Z,9.45
2019-02-18T14:43:25.087Z,9.48
2019-02-18T14:46:05.966Z,14.07
2019-02-18T14:48:47.805Z,9.80
2019-02-18T14:51:28.202Z,10.60
2019-02-18T14:54:09.514Z,9.18
2019-02-18T14:56:49.997Z,9.08
2019-02-18T14:59:31.221Z,8.65
2019-02-18T15:02:11.843Z,12.07
2019-02-18T15:04:52.308Z,9.15
2019-02-18T15:07:33.235Z,8.90
2019-02-18T15:10:13.731Z,9.88
2019-02-18T15:13:01.882Z,9.58
2019-02-18T15:15:50.124Z,8.88
2019-02-18T15:18:38.377Z,8.05
2019-02-18T15:21:26.532Z,10.05
2019-02-18T15:24:14.683Z,11.30
2019-02-18T15:27:02.887Z,12.03
2019-02-18T15:29:52.787Z,10.98
2019-02-18T15:32:40.926Z,13.98
2019-02-18T15:35:29.094Z,13.22
2019-02-18T15:38:17.224Z,9.55
2019-02-18T15:41:05.621Z,10.50
2019-02-18T15:43:53.777Z,9.98
2019-02-18T15:46:41.948Z,13.22
2019-02-18T15:49:30.560Z,12.40
2019-02-18T15:52:11.990Z,12.45
2019-02-18T15:54:53.450Z,12.58
2019-02-18T15:57:34.625Z,11.87
2019-02-18T16:00:15.264Z,14.50
2019-02-18T16:02:56.131Z,11.70
2019-02-18T16:05:37.105Z,9.77
2019-02-18T16:08:18.344Z,10.77
2019-02-18T16:10:59.540Z,14.10
2019-02-18T16:13:40.355Z,11.97
2019-02-18T16:16:21.269Z,12.40
2019-02-18T16:19:03.033Z,9.00
2019-02-18T16:21:43.634Z,9.30
2019-02-18T16:24:24.154Z,10.30
2019-02-18T16:27:07.762Z,9.00
2019-02-18T16:29:48.610Z,11.60
2019-02-18T16:32:29.233Z,10.70
2019-02-18T16:37:57.605Z,9.47
2019-02-18T16:40:39.112Z,11.83
2019-02-18T16:43:08.424Z,10.43
2019-02-18T16:45:56.827Z,10.87
2019-02-18T16:48:46.692Z,10.87
2019-02-18T16:51:29.398Z,10.80
2019-02-18T16:54:10.521Z,31.50
2019-02-18T16:56:51.148Z,22.03
2019-02-18T16:59:31.599Z,35.97
2019-02-18T17:02:13.004Z,59.00
2019-02-18T17:04:54.270Z,39.03
2019-02-18T17:07:35.852Z,20.23
2019-02-18T17:10:17.221Z,16.30
2019-02-18T17:12:58.801Z,16.00
2019-02-18T17:15:39.391Z,13.70
2019-02-18T17:21:02.745Z,24.40
2019-02-18T17:23:43.833Z,21.97
2019-02-18T17:26:24.390Z,27.17
2019-02-18T17:29:05.088Z,19.93
2019-02-18T17:31:46.047Z,17.33
2019-02-18T17:34:27.222Z,13.23
2019-02-18T17:37:08.870Z,19.40
2019-02-18T17:39:49.933Z,20.07
2019-02-18T17:42:30.663Z,14.60
2019-02-18T17:45:11.507Z,13.40
2019-02-18T17:47:52.366Z,11.47
2019-02-18T17:50:33.395Z,16.13
2019-02-18T17:53:14.780Z,17.07
2019-02-18T17:55:55.858Z,16.03
2019-02-18T17:58:37.001Z,13.87
2019-02-18T18:01:18.448Z,12.30
2019-02-18T18:03:59.128Z,16.53
2019-02-18T18:06:39.860Z,12.47
2019-02-18T18:09:21.409Z,12.00
2019-02-18T18:12:02.471Z,12.17
2019-02-18T18:14:46.698Z,14.00
2019-02-18T18:17:27.665Z,12.70
2019-02-18T18:20:08.402Z,13.47
2019-02-18T18:22:49.013Z,11.20
2019-02-18T18:25:30.065Z,14.10
2019-02-18T18:28:10.655Z,13.67
2019-02-18T18:30:51.786Z,15.17
2019-02-18T18:33:20.986Z,13.07
2019-02-18T18:36:09.121Z,14.23
2019-02-18T18:38:57.332Z,16.37
2019-02-18T18:41:45.480Z,21.80
2019-02-18T18:44:33.660Z,21.80
2019-02-18T18:47:22.211Z,24.27
2019-02-18T18:50:11.589Z,44.63
2019-02-18T18:52:51.029Z,31.07
2019-02-18T18:55:39.160Z,29.97
2019-02-18T18:58:27.309Z,21.97
2019-02-18T19:01:15.457Z,42.40
2019-02-18T19:04:03.589Z,23.90
2019-02-18T19:06:51.377Z,21.77
2019-02-18T19:09:38.971Z,18.47
2019-02-18T19:12:27.352Z,18.67
2019-02-18T19:15:15.512Z,20.47
2019-02-18T19:18:03.665Z,16.83
2019-02-18T19:20:51.790Z,22.87
2019-02-18T19:23:40.104Z,19.40
2019-02-18T19:26:28.258Z,19.37
2019-02-18T19:29:16.393Z,16.37
2019-02-18T19:32:04.541Z,17.37
2019-02-18T19:34:52.710Z,21.30
2019-02-18T19:37:42.815Z,21.73
2019-02-18T19:40:31.027Z,21.30
2019-02-18T19:43:19.263Z,24.43
2019-02-18T19:46:07.464Z,24.43
2019-02-18T19:48:55.616Z,29.77
2019-02-18T19:51:43.826Z,30.37
2019-02-18T19:54:31.952Z,28.17
2019-02-18T19:57:20.353Z,27.17
2019-02-18T20:00:09.381Z,27.43
2019-02-18T20:02:57.777Z,28.67
2019-02-18T20:05:46.232Z,23.90
2019-02-18T20:11:31.209Z,23.20
2019-02-18T20:14:21.319Z,22.07
2019-02-18T20:17:09.860Z,21.33
2019-02-18T20:19:58.265Z,22.87
2019-02-18T20:22:47.174Z,20.50
2019-02-18T20:25:35.640Z,21.80
2019-02-18T20:28:23.913Z,26.03
2019-02-18T20:31:12.318Z,22.73
2019-02-18T20:34:00.759Z,57.43
2019-02-18T20:36:49.201Z,63.50
2019-02-18T20:39:37.776Z,76.30
2019-02-18T20:42:26.083Z,55.60
2019-02-18T20:45:16.224Z,51.13
2019-02-18T20:48:04.621Z,51.77
2019-02-18T20:50:52.971Z,49.57
2019-02-18T20:53:34.188Z,53.80
2019-02-18T20:56:03.286Z,56.37
2019-02-18T20:58:51.461Z,49.10
2019-02-18T21:01:39.625Z,54.03
2019-02-18T21:04:28.010Z,44.83
2019-02-18T21:07:16.596Z,42.37
2019-02-18T21:10:05.107Z,44.13
2019-02-18T21:12:53.364Z,37.43
2019-02-18T21:15:41.702Z,41.47
2019-02-18T21:18:31.607Z,40.27
2019-02-18T21:21:19.839Z,37.93
2019-02-18T21:24:08.175Z,36.00
2019-02-18T21:26:56.592Z,35.90
2019-02-18T21:29:45.070Z,33.87
2019-02-18T21:32:33.356Z,30.73
2019-02-18T21:35:21.609Z,37.87
2019-02-18T21:38:09.881Z,40.30
2019-02-18T21:40:58.518Z,39.63
2019-02-18T21:43:48.821Z,44.57
2019-02-18T21:46:37.100Z,43.80
2019-02-18T21:49:25.599Z,41.53
2019-02-18T21:52:06.362Z,46.57
2019-02-18T21:54:47.042Z,41.40
2019-02-18T21:57:28.168Z,41.70
2019-02-18T22:03:03.839Z,36.77
2019-02-18T22:05:44.978Z,31.43
2019-02-18T22:08:26.006Z,35.73
2019-02-18T22:11:07.234Z,35.00
2019-02-18T22:13:48.058Z,36.23
2019-02-18T22:16:28.642Z,32.67
2019-02-18T22:19:09.065Z,32.13
2019-02-18T22:21:49.630Z,35.17
2019-02-18T22:24:30.539Z,29.63
2019-02-18T22:27:10.936Z,27.87
2019-02-18T22:29:51.613Z,30.93
2019-02-18T22:32:32.455Z,29.67
2019-02-18T22:35:13.120Z,31.73
2019-02-18T22:37:54.112Z,33.27
2019-02-18T22:40:34.816Z,33.90
2019-02-18T22:43:15.703Z,32.67
2019-02-18T22:45:56.208Z,33.67
2019-02-18T22:48:37.224Z,31.13
2019-02-18T22:51:17.796Z,39.87
2019-02-18T22:53:58.464Z,33.90
2019-02-18T22:56:40.712Z,33.00
2019-02-18T22:59:21.985Z,30.27
2019-02-18T23:02:02.682Z,34.83
2019-02-18T23:04:43.812Z,33.73
2019-02-18T23:07:24.547Z,34.57
2019-02-18T23:10:05.443Z,33.37
2019-02-18T23:12:46.169Z,31.00
2019-02-18T23:15:26.925Z,35.10
2019-02-18T23:18:08.555Z,36.13
2019-02-18T23:20:49.166Z,33.57
2019-02-18T23:23:29.930Z,35.90
2019-02-18T23:26:10.644Z,36.83
2019-02-18T23:28:51.271Z,31.73
2019-02-18T23:31:32.325Z,41.47
2019-02-18T23:34:13.936Z,32.17
2019-02-18T23:36:54.644Z,30.30
2019-02-18T23:39:35.493Z,30.03
2019-02-18T23:42:16.334Z,31.90
2019-02-18T23:44:59.268Z,35.80
2019-02-18T23:47:39.408Z,36.63
2019-02-18T23:50:20.142Z,36.87
2019-02-18T23:53:00.902Z,34.53
2019-02-18T23:55:41.692Z,33.93
2019-02-18T23:58:22.968Z,31.83
